Time;durP1;ratioP1;P1;durP2;ratioP2;P2;SDS_P1;SDS_P2;PMS_P1;PMS_P2;Temp;Humidity;BMP_temperature;BMP_pressure;BME280_temperature;BME280_humidity;BME280_pressure;Samples;Min_cycle;Max_cycle;Signal;HPM_P1;HPM_P2
2022/05/12 00:02:10;;;;;;;7.93;5.35;;;;;;;;;;6552544;22;20345;-63
2022/05/12 00:04:41;;;;;;;7.15;6.53;;;;;;;;;;6552553;22;20077;-63
2022/05/12 00:07:11;;;;;;;7.78;6.05;;;;;;;;;;6553113;22;20030;-63
2022/05/12 00:09:47;;;;;;;19.55;7.35;;;;;;;;;;6555135;22;19999;-63
2022/05/12 00:12:18;;;;;;;10.75;5.75;;;;;;;;;;6553157;22;20002;-62
2022/05/12 00:14:48;;;;;;;6.38;5.40;;;;;;;;;;6552541;22;19999;-63
2022/05/12 00:17:18;;;;;;;8.02;7.22;;;;;;;;;;6553114;22;20098;-63
2022/05/12 00:19:49;;;;;;;6.22;5.63;;;;;;;;;;6553161;22;20085;-63
2022/05/12 00:22:19;;;;;;;12.75;6.95;;;;;;;;;;6553909;22;20139;-62
2022/05/12 00:24:49;;;;;;;7.00;6.40;;;;;;;;;;6552864;22;20329;-63
2022/05/12 00:27:19;;;;;;;6.65;6.10;;;;;;;;;;6553393;22;19998;-63
2022/05/12 00:29:50;;;;;;;7.07;5.40;;;;;;;;;;6552816;22;20432;-63
2022/05/12 00:32:20;;;;;;;6.18;5.13;;;;;;;;;;6553179;22;20041;-63
2022/05/12 00:34:50;;;;;;;11.80;4.40;;;;;;;;;;6552813;22;20444;-62
2022/05/12 00:37:21;;;;;;;8.55;5.20;;;;;;;;;;6553155;22;20428;-63
2022/05/12 00:39:51;;;;;;;6.80;5.57;;;;;;;;;;6552877;22;19998;-62
2022/05/12 00:42:21;;;;;;;10.00;4.93;;;;;;;;;;6553049;22;20001;-63
2022/05/12 00:44:52;;;;;;;9.50;5.53;;;;;;;;;;6552742;22;20429;-62
2022/05/12 00:47:22;;;;;;;9.80;5.80;;;;;;;;;;6553303;22;19999;-62
2022/05/12 00:49:53;;;;;;;7.80;5.05;;;;;;;;;;6553375;22;20010;-62
2022/05/12 00:52:26;;;;;;;8.95;6.03;;;;;;;;;;6553418;22;20007;-62
2022/05/12 00:54:59;;;;;;;14.70;7.50;;;;;;;;;;6553017;22;20002;-61
2022/05/12 00:57:32;;;;;;;4.95;4.55;;;;;;;;;;6552874;22;20014;-62
2022/05/12 01:00:05;;;;;;;6.90;6.13;;;;;;;;;;6552921;22;20006;-62
2022/05/12 01:02:36;;;;;;;9.85;5.68;;;;;;;;;;6552900;22;20019;-62
2022/05/12 01:05:07;;;;;;;12.50;6.65;;;;;;;;;;6552641;22;20014;-62
2022/05/12 01:07:37;;;;;;;8.10;5.90;;;;;;;;;;6552766;22;20421;-62
2022/05/12 01:13:17;;;;;;;8.32;6.35;;;;;;;;;;6555298;22;20118;-61
2022/05/12 01:15:49;;;;;;;17.38;7.82;;;;;;;;;;6552604;22;19994;-62
2022/05/12 01:18:19;;;;;;;11.23;7.45;;;;;;;;;;6554331;22;19994;-61
2022/05/12 01:20:50;;;;;;;9.98;6.97;;;;;;;;;;6553010;22;20340;-61
2022/05/12 01:23:31;;;;;;;8.00;6.40;;;;;;;;;;6554564;22;20001;-62
2022/05/12 01:26:04;;;;;;;6.82;6.32;;;;;;;;;;6553520;22;20002;-62
2022/05/12 01:28:35;;;;;;;15.43;8.38;;;;;;;;;;6552873;22;20006;-62
2022/05/12 01:31:06;;;;;;;14.43;8.43;;;;;;;;;;6552715;22;19994;-62
2022/05/12 01:33:36;;;;;;;7.65;7.03;;;;;;;;;;6552525;22;20002;-62
2022/05/12 01:36:06;;;;;;;9.93;7.78;;;;;;;;;;6553093;22;20026;-62
2022/05/12 01:38:37;;;;;;;9.68;6.90;;;;;;;;;;6552763;22;20003;-61
2022/05/12 01:41:07;;;;;;;8.95;8.05;;;;;;;;;;6553133;22;20487;-62
2022/05/12 01:43:37;;;;;;;13.30;8.63;;;;;;;;;;6553536;22;20008;-62
2022/05/12 01:46:08;;;;;;;14.70;8.48;;;;;;;;;;6554289;22;19995;-62
2022/05/12 01:48:38;;;;;;;11.82;6.72;;;;;;;;;;6556420;22;19998;-62
2022/05/12 01:51:09;;;;;;;11.18;8.02;;;;;;;;;;6554098;22;20014;-62
2022/05/12 01:53:39;;;;;;;20.30;10.10;;;;;;;;;;6554184;22;20003;-62
2022/05/12 01:56:10;;;;;;;19.67;8.70;;;;;;;;;;6554488;22;20006;-62
2022/05/12 01:58:40;;;;;;;9.75;8.38;;;;;;;;;;6539988;22;20089;-61
2022/05/12 02:01:11;;;;;;;16.00;10.73;;;;;;;;;;6530586;22;19995;-61
2022/05/12 02:03:42;;;;;;;13.05;11.90;;;;;;;;;;6529557;22;20016;-61
2022/05/12 02:06:12;;;;;;;20.45;10.18;;;;;;;;;;6559379;22;20002;-61
2022/05/12 02:08:42;;;;;;;10.65;9.73;;;;;;;;;;6557313;22;20002;-61
2022/05/12 02:11:12;;;;;;;10.95;8.13;;;;;;;;;;6530563;22;20063;-61
2022/05/12 02:13:43;;;;;;;13.15;10.55;;;;;;;;;;6531839;22;20317;-62
2022/05/12 02:16:13;;;;;;;12.25;10.68;;;;;;;;;;6531638;22;20009;-61
2022/05/12 02:18:44;;;;;;;23.27;10.23;;;;;;;;;;6557997;22;20056;-63
2022/05/12 02:21:14;;;;;;;11.98;10.43;;;;;;;;;;6532562;22;20453;-62
2022/05/12 02:23:44;;;;;;;11.63;10.05;;;;;;;;;;6531827;22;19995;-61
2022/05/12 02:26:14;;;;;;;13.77;12.30;;;;;;;;;;6532144;22;20113;-61
2022/05/12 02:28:45;;;;;;;16.08;13.40;;;;;;;;;;6558943;22;20078;-61
2022/05/12 02:31:15;;;;;;;17.50;14.15;;;;;;;;;;6531062;22;20005;-61
2022/05/12 02:33:45;;;;;;;13.23;12.10;;;;;;;;;;6531203;22;20003;-61
2022/05/12 02:36:16;;;;;;;14.07;12.73;;;;;;;;;;6530756;22;19999;-61
2022/05/12 02:38:46;;;;;;;17.70;15.35;;;;;;;;;;6530016;22;19991;-61
2022/05/12 02:41:16;;;;;;;16.15;14.45;;;;;;;;;;6556273;22;19990;-61
2022/05/12 02:43:47;;;;;;;17.00;14.82;;;;;;;;;;6529268;22;19998;-61
2022/05/12 02:46:17;;;;;;;19.00;15.18;;;;;;;;;;6558390;22;19991;-61
2022/05/12 02:48:50;;;;;;;21.08;16.15;;;;;;;;;;6556763;22;20003;-61
2022/05/12 02:51:20;;;;;;;21.60;16.92;;;;;;;;;;6530294;22;20021;-61
2022/05/12 02:53:51;;;;;;;17.42;15.75;;;;;;;;;;6557343;22;20420;-61
2022/05/12 02:56:21;;;;;;;22.63;18.92;;;;;;;;;;6529565;22;20030;-61
2022/05/12 02:58:51;;;;;;;20.83;18.65;;;;;;;;;;6529745;22;20088;-61
2022/05/12 03:01:22;;;;;;;18.77;16.60;;;;;;;;;;6529807;22;19999;-61
2022/05/12 03:03:53;;;;;;;24.80;18.13;;;;;;;;;;6557377;22;20361;-60
2022/05/12 03:06:23;;;;;;;19.67;17.20;;;;;;;;;;6529780;22;19994;-62
2022/05/12 03:08:54;;;;;;;20.85;18.65;;;;;;;;;;6528736;22;19994;-61
2022/05/12 03:11:25;;;;;;;22.55;20.30;;;;;;;;;;6530672;22;20440;-60
2022/05/12 03:13:55;;;;;;;27.63;21.10;;;;;;;;;;6557423;22;19999;-61
2022/05/12 03:16:25;;;;;;;24.73;22.02;;;;;;;;;;6530777;22;19995;-61
2022/05/12 03:18:56;;;;;;;24.27;22.02;;;;;;;;;;6557429;22;20341;-61
2022/05/12 03:21:26;;;;;;;25.90;22.15;;;;;;;;;;6531378;22;19986;-61
2022/05/12 03:23:57;;;;;;;21.42;19.17;;;;;;;;;;6531172;22;19995;-61
2022/05/12 03:26:27;;;;;;;20.73;18.92;;;;;;;;;;6531917;22;19998;-61
2022/05/12 03:28:58;;;;;;;25.23;19.98;;;;;;;;;;6530556;22;19999;-64
2022/05/12 03:31:28;;;;;;;19.83;17.70;;;;;;;;;;6556244;22;20024;-61
2022/05/12 03:34:00;;;;;;;23.50;20.67;;;;;;;;;;6530491;22;20002;-61
2022/05/12 03:36:35;;;;;;;31.10;21.52;;;;;;;;;;6531265;22;20009;-61
2022/05/12 03:39:07;;;;;;;21.98;19.20;;;;;;;;;;6531154;22;20005;-60
2022/05/12 03:41:37;;;;;;;23.20;20.92;;;;;;;;;;6530135;22;20074;-64
2022/05/12 03:46:57;;;;;;;28.83;25.42;;;;;;;;;;6556786;22;20010;-60
2022/05/12 03:49:27;;;;;;;26.45;22.02;;;;;;;;;;6557057;22;19999;-61
2022/05/12 03:51:57;;;;;;;25.48;22.75;;;;;;;;;;6557353;22;20006;-61
2022/05/12 03:54:28;;;;;;;27.73;23.60;;;;;;;;;;6528836;22;19995;-62
2022/05/12 03:57:02;;;;;;;29.88;25.50;;;;;;;;;;6529623;22;20444;-61
2022/05/12 03:59:33;;;;;;;31.17;26.30;;;;;;;;;;6529047;22;20006;-61
2022/05/12 04:02:12;;;;;;;29.23;26.35;;;;;;;;;;6529896;22;20454;-61
2022/05/12 04:04:43;;;;;;;33.45;25.77;;;;;;;;;;6528475;22;20073;-62
2022/05/12 04:07:14;;;;;;;28.60;24.88;;;;;;;;;;6530083;22;20080;-61
2022/05/12 04:09:45;;;;;;;28.30;25.55;;;;;;;;;;6530225;22;20078;-62
2022/05/12 04:12:15;;;;;;;27.92;25.33;;;;;;;;;;6556611;22;20036;-60
2022/05/12 04:14:45;;;;;;;31.67;26.70;;;;;;;;;;6529142;22;19994;-61
2022/05/12 04:17:16;;;;;;;29.50;26.65;;;;;;;;;;6557610;22;20070;-61
2022/05/12 04:19:50;;;;;;;36.33;32.03;;;;;;;;;;6530163;22;20369;-61
2022/05/12 04:22:20;;;;;;;31.35;28.45;;;;;;;;;;6530290;22;20002;-61
2022/05/12 04:24:50;;;;;;;32.42;29.08;;;;;;;;;;6529625;22;20417;-61
2022/05/12 04:27:21;;;;;;;41.65;28.25;;;;;;;;;;6556296;22;19995;-61
2022/05/12 04:29:51;;;;;;;31.55;28.83;;;;;;;;;;6528509;22;20456;-61
2022/05/12 04:32:21;;;;;;;32.15;29.30;;;;;;;;;;6529806;22;20444;-62
2022/05/12 04:35:11;;;;;;;32.65;29.75;;;;;;;;;;6555400;22;19995;-62
2022/05/12 04:37:44;;;;;;;33.92;30.80;;;;;;;;;;6556419;22;20432;-61
2022/05/12 04:40:20;;;;;;;32.28;28.00;;;;;;;;;;6529360;22;19999;-62
2022/05/12 04:42:52;;;;;;;31.15;27.83;;;;;;;;;;6529666;22;20030;-62
2022/05/12 04:45:23;;;;;;;35.33;31.67;;;;;;;;;;6529183;22;20342;-63
2022/05/12 04:47:54;;;;;;;32.45;29.17;;;;;;;;;;6554246;22;20002;-63
2022/05/12 04:50:29;;;;;;;31.10;28.02;;;;;;;;;;6526183;22;20425;-65
2022/05/12 04:53:00;;;;;;;32.67;29.67;;;;;;;;;;6556117;22;20009;-61
2022/05/12 04:55:31;;;;;;;30.38;27.13;;;;;;;;;;6528442;22;20003;-62
2022/05/12 04:58:01;;;;;;;30.33;25.73;;;;;;;;;;6555719;22;20101;-62
2022/05/12 05:00:35;;;;;;;26.38;23.73;;;;;;;;;;6530856;22;20386;-61
2022/05/12 05:03:05;;;;;;;27.23;24.63;;;;;;;;;;6530341;22;19995;-62
2022/05/12 05:05:36;;;;;;;32.72;23.73;;;;;;;;;;6531417;22;19999;-62
2022/05/12 05:08:06;;;;;;;26.17;23.75;;;;;;;;;;6533027;22;20056;-62
2022/05/12 05:10:36;;;;;;;24.33;21.20;;;;;;;;;;6533280;22;20044;-62
2022/05/12 05:13:07;;;;;;;29.88;25.15;;;;;;;;;;6533386;22;20005;-62
2022/05/12 05:15:37;;;;;;;26.17;23.58;;;;;;;;;;6557361;22;20440;-63
2022/05/12 05:18:12;;;;;;;30.25;27.25;;;;;;;;;;6560848;22;20026;-62
2022/05/12 05:20:43;;;;;;;23.42;21.20;;;;;;;;;;6532114;22;20079;-62
2022/05/12 05:23:18;;;;;;;34.08;26.00;;;;;;;;;;6534363;22;20002;-62
2022/05/12 05:25:48;;;;;;;27.77;24.95;;;;;;;;;;6536339;22;20086;-62
2022/05/12 05:28:19;;;;;;;39.55;24.60;;;;;;;;;;6537250;22;20581;-62
2022/05/12 05:30:50;;;;;;;29.60;23.48;;;;;;;;;;6538811;22;20010;-63
2022/05/12 05:33:23;;;;;;;29.20;26.30;;;;;;;;;;6537636;22;20425;-63
2022/05/12 05:35:53;;;;;;;27.27;21.90;;;;;;;;;;6563852;22;20005;-63
2022/05/12 05:38:24;;;;;;;29.63;26.75;;;;;;;;;;6537752;22;20479;-63
2022/05/12 05:40:54;;;;;;;26.30;24.15;;;;;;;;;;6565121;22;20448;-63
2022/05/12 05:43:26;;;;;;;27.40;24.50;;;;;;;;;;6561767;22;20006;-65
2022/05/12 05:45:56;;;;;;;32.17;25.10;;;;;;;;;;6561162;22;19990;-61
2022/05/12 05:48:27;;;;;;;38.47;28.48;;;;;;;;;;6560494;22;20081;-63
2022/05/12 05:53:46;;;;;;;33.13;30.00;;;;;;;;;;6558545;22;20034;-63
2022/05/12 05:56:17;;;;;;;30.95;27.75;;;;;;;;;;6534336;22;19995;-62
2022/05/12 05:58:48;;;;;;;31.85;28.77;;;;;;;;;;6559375;22;20034;-62
2022/05/12 06:01:20;;;;;;;25.55;22.77;;;;;;;;;;6533521;22;19994;-63
2022/05/12 06:03:52;;;;;;;47.00;24.40;;;;;;;;;;6531889;22;20085;-63
2022/05/12 06:06:23;;;;;;;32.53;29.00;;;;;;;;;;6558210;22;19994;-63
2022/05/12 06:08:53;;;;;;;34.47;27.15;;;;;;;;;;6531890;22;20399;-63
2022/05/12 06:11:23;;;;;;;30.73;25.67;;;;;;;;;;6557976;22;20111;-62
2022/05/12 06:13:54;;;;;;;30.00;25.40;;;;;;;;;;6556067;22;20006;-61
2022/05/12 06:16:24;;;;;;;29.77;26.60;;;;;;;;;;6556280;22;20452;-61
2022/05/12 06:18:54;;;;;;;32.83;25.98;;;;;;;;;;6557862;22;20078;-62
2022/05/12 06:21:24;;;;;;;36.05;29.17;;;;;;;;;;6530514;22;20002;-61
2022/05/12 06:23:55;;;;;;;29.92;26.55;;;;;;;;;;6556731;22;20003;-61
2022/05/12 06:26:26;;;;;;;32.72;29.38;;;;;;;;;;6530986;22;20044;-62
2022/05/12 06:28:58;;;;;;;27.92;25.25;;;;;;;;;;6556399;22;20459;-62
2022/05/12 06:31:30;;;;;;;23.88;21.75;;;;;;;;;;6530176;22;20151;-62
2022/05/12 06:34:00;;;;;;;25.25;21.15;;;;;;;;;;6556909;22;20026;-61
2022/05/12 06:36:30;;;;;;;22.13;19.80;;;;;;;;;;6530340;22;20018;-62
2022/05/12 06:39:01;;;;;;;20.25;18.13;;;;;;;;;;6557913;22;20078;-62
2022/05/12 06:41:32;;;;;;;21.70;18.92;;;;;;;;;;6556509;22;19995;-62
2022/05/12 06:44:04;;;;;;;16.67;15.13;;;;;;;;;;6555448;22;20006;-62
2022/05/12 06:46:36;;;;;;;16.05;14.45;;;;;;;;;;6530071;22;20018;-62
2022/05/12 06:49:06;;;;;;;16.05;14.50;;;;;;;;;;6529825;22;20006;-63
2022/05/12 06:51:37;;;;;;;15.75;12.52;;;;;;;;;;6556364;22;20003;-62
2022/05/12 06:54:09;;;;;;;14.73;11.73;;;;;;;;;;6530228;22;20218;-62
2022/05/12 06:56:41;;;;;;;18.85;10.35;;;;;;;;;;6530115;22;20010;-61
2022/05/12 06:59:11;;;;;;;14.35;10.40;;;;;;;;;;6530041;22;20396;-62
2022/05/12 07:01:41;;;;;;;20.85;12.35;;;;;;;;;;6530145;22;19995;-62
2022/05/12 07:04:12;;;;;;;16.73;14.90;;;;;;;;;;6555555;22;19999;-62
2022/05/12 07:06:42;;;;;;;13.38;12.10;;;;;;;;;;6529801;22;19994;-62
2022/05/12 07:09:12;;;;;;;12.75;11.48;;;;;;;;;;6556555;22;20440;-62
2022/05/12 07:11:42;;;;;;;12.20;11.07;;;;;;;;;;6555298;22;20002;-62
2022/05/12 07:14:14;;;;;;;11.40;10.40;;;;;;;;;;6527930;22;20044;-62
2022/05/12 07:16:44;;;;;;;14.10;11.93;;;;;;;;;;6528904;22;20010;-62
2022/05/12 07:19:15;;;;;;;13.43;12.00;;;;;;;;;;6529094;22;20014;-62
2022/05/12 07:27:23;;;;;;;10.23;9.15;;;;;;;;;;6557562;22;20231;-62
2022/05/12 07:29:54;;;;;;;8.60;8.05;;;;;;;;;;6529338;22;20026;-62
2022/05/12 07:32:24;;;;;;;12.48;9.15;;;;;;;;;;6529188;22;20073;-62
2022/05/12 07:34:54;;;;;;;11.85;10.80;;;;;;;;;;6529096;22;20444;-62
2022/05/12 07:37:25;;;;;;;12.50;9.40;;;;;;;;;;6530088;22;20445;-61
2022/05/12 07:39:55;;;;;;;8.38;7.72;;;;;;;;;;6528939;22;20002;-61
2022/05/12 07:42:25;;;;;;;8.40;6.45;;;;;;;;;;6557099;22;20324;-61
2022/05/12 07:44:56;;;;;;;11.52;7.93;;;;;;;;;;6527853;22;19991;-61
2022/05/12 07:47:27;;;;;;;14.00;8.02;;;;;;;;;;6529884;22;20015;-61
2022/05/12 07:49:59;;;;;;;9.73;6.35;;;;;;;;;;6556593;22;20022;-62
2022/05/12 07:52:30;;;;;;;11.45;8.55;;;;;;;;;;6557371;22;19995;-62
2022/05/12 07:55:03;;;;;;;10.38;8.80;;;;;;;;;;6528403;22;20009;-67
2022/05/12 07:57:33;;;;;;;7.30;6.60;;;;;;;;;;6555274;22;20522;-63
2022/05/12 08:00:05;;;;;;;6.47;5.97;;;;;;;;;;6496683;22;20003;-61
2022/05/12 08:02:36;;;;;;;6.82;6.00;;;;;;;;;;6495795;22;20432;-59
2022/05/12 08:05:06;;;;;;;8.57;5.50;;;;;;;;;;6496455;22;19995;-62
2022/05/12 08:07:36;;;;;;;5.95;4.15;;;;;;;;;;6524055;22;20083;-62
2022/05/12 08:10:07;;;;;;;10.55;5.55;;;;;;;;;;6496686;22;19999;-62
2022/05/12 08:12:37;;;;;;;5.25;4.57;;;;;;;;;;6523963;22;20049;-60
2022/05/12 08:15:09;;;;;;;5.00;4.13;;;;;;;;;;6496423;22;19999;-61
2022/05/12 08:17:40;;;;;;;5.38;4.88;;;;;;;;;;6496726;22;20010;-61
2022/05/12 08:20:13;;;;;;;7.35;3.88;;;;;;;;;;6496302;22;20408;-60
2022/05/12 08:22:43;;;;;;;6.68;5.65;;;;;;;;;;6496160;22;19999;-62
2022/05/12 08:25:14;;;;;;;5.05;4.55;;;;;;;;;;6496151;22;20061;-61
2022/05/12 08:27:44;;;;;;;9.00;4.68;;;;;;;;;;6496063;22;20002;-62
2022/05/12 08:30:17;;;;;;;9.05;5.00;;;;;;;;;;6496184;22;20444;-64
2022/05/12 08:32:47;;;;;;;3.47;3.17;;;;;;;;;;6496757;22;20429;-60
2022/05/12 08:35:17;;;;;;;5.72;5.05;;;;;;;;;;6495749;22;20082;-59
2022/05/12 08:37:48;;;;;;;5.13;4.72;;;;;;;;;;6496467;22;20345;-61
2022/05/12 08:40:31;;;;;;;11.82;5.95;;;;;;;;;;6496275;22;20003;-62
2022/05/12 08:43:25;;;;;;;6.68;5.30;;;;;;;;;;6523785;22;19999;-60
2022/05/12 08:45:58;;;;;;;7.68;4.43;;;;;;;;;;6480713;22;20082;-61
2022/05/12 08:48:28;;;;;;;5.30;4.75;;;;;;;;;;6496006;22;19999;-62
2022/05/12 08:50:59;;;;;;;6.05;4.00;;;;;;;;;;6496165;22;20336;-62
2022/05/12 08:53:32;;;;;;;9.10;3.47;;;;;;;;;;6495117;22;20002;-63
2022/05/12 08:56:04;;;;;;;5.60;3.35;;;;;;;;;;6495758;22;19999;-60
2022/05/12 08:58:36;;;;;;;5.55;5.20;;;;;;;;;;6516006;22;19998;-59
2022/05/12 09:01:17;;;;;;;4.88;4.47;;;;;;;;;;6554330;22;20436;-61
2022/05/12 09:03:48;;;;;;;6.60;4.57;;;;;;;;;;6553913;22;20082;-62
2022/05/12 09:06:41;;;;;;;4.15;3.83;;;;;;;;;;6554394;22;20083;-62
2022/05/12 09:09:14;;;;;;;2.80;2.70;;;;;;;;;;6547323;22;20002;-62
2022/05/12 09:11:51;;;;;;;7.70;3.85;;;;;;;;;;6555714;22;20429;-60
2022/05/12 09:14:33;;;;;;;4.10;3.85;;;;;;;;;;6553738;22;20002;-63
2022/05/12 09:17:04;;;;;;;3.55;3.35;;;;;;;;;;6554601;22;20007;-60
2022/05/12 09:19:36;;;;;;;5.80;4.05;;;;;;;;;;6528050;22;20019;-61
2022/05/12 09:22:06;;;;;;;12.48;4.65;;;;;;;;;;6554157;22;19999;-60
2022/05/12 09:24:37;;;;;;;4.38;3.97;;;;;;;;;;6553806;22;20044;-61
2022/05/12 09:27:07;;;;;;;5.10;4.75;;;;;;;;;;6553915;22;19991;-62
2022/05/12 09:29:42;;;;;;;3.88;3.38;;;;;;;;;;6553989;22;20034;-63
2022/05/12 09:32:13;;;;;;;4.22;2.88;;;;;;;;;;6554609;22;19998;-61
2022/05/12 09:34:46;;;;;;;4.38;4.05;;;;;;;;;;6553729;22;20445;-63
2022/05/12 09:37:18;;;;;;;5.25;2.83;;;;;;;;;;6554269;22;20026;-62
2022/05/12 09:39:50;;;;;;;3.63;3.30;;;;;;;;;;6553950;22;20086;-60
2022/05/12 09:42:29;;;;;;;3.05;2.42;;;;;;;;;;6554080;22;20444;-60
2022/05/12 09:45:20;;;;;;;6.72;3.58;;;;;;;;;;6553872;22;20033;-62
2022/05/12 09:48:06;;;;;;;3.55;3.30;;;;;;;;;;6553354;22;19999;-60
2022/05/12 09:50:36;;;;;;;7.68;3.53;;;;;;;;;;6554284;22;20012;-63
2022/05/12 09:53:08;;;;;;;2.72;2.53;;;;;;;;;;6553453;22;20099;-63
2022/05/12 09:55:40;;;;;;;2.90;2.70;;;;;;;;;;6554361;22;20462;-62
2022/05/12 09:58:13;;;;;;;11.48;3.78;;;;;;;;;;6554026;22;20035;-59
2022/05/12 10:00:50;;;;;;;9.50;2.83;;;;;;;;;;6554463;22;20352;-62
2022/05/12 10:09:18;;;;;;;3.17;2.83;;;;;;;;;;6557677;22;20090;-60
2022/05/12 10:11:49;;;;;;;2.30;2.20;;;;;;;;;;6556024;22;20002;-63
2022/05/12 10:14:28;;;;;;;4.13;3.72;;;;;;;;;;6555434;22;20048;-60
2022/05/12 10:16:58;;;;;;;;;;;;;;;;;;6556336;22;20019;-63
2022/05/12 10:19:30;;;;;;;5.37;2.30;;;;;;;;;;6557560;22;19909;-61
2022/05/12 10:22:15;;;;;;;4.25;2.40;;;;;;;;;;6555638;22;19995;-69
2022/05/12 10:25:01;;;;;;;4.65;2.90;;;;;;;;;;6555076;22;20017;-63
2022/05/12 10:27:42;;;;;;;5.07;2.58;;;;;;;;;;6555736;22;20484;-61
2022/05/12 10:30:31;;;;;;;2.65;2.03;;;;;;;;;;6555351;22;19999;-59
2022/05/12 10:33:20;;;;;;;3.05;2.85;;;;;;;;;;6555709;22;20372;-63
2022/05/12 10:36:05;;;;;;;5.78;3.17;;;;;;;;;;6556935;22;20021;-61
2022/05/12 10:38:54;;;;;;;2.28;2.17;;;;;;;;;;6555398;22;20031;-60
2022/05/12 10:41:33;;;;;;;2.58;2.22;;;;;;;;;;6555568;22;20089;-60
2022/05/12 10:44:25;;;;;;;8.93;4.18;;;;;;;;;;6555591;22;19999;-62
2022/05/12 10:47:05;;;;;;;7.15;4.00;;;;;;;;;;6555532;22;20482;-63
2022/05/12 10:49:54;;;;;;;2.42;2.33;;;;;;;;;;6555749;22;20417;-60
2022/05/12 10:52:27;;;;;;;2.70;2.60;;;;;;;;;;6555370;22;19994;-62
2022/05/12 10:55:21;;;;;;;4.90;2.05;;;;;;;;;;6556430;22;19995;-61
2022/05/12 10:58:04;;;;;;;4.65;3.50;;;;;;;;;;6543224;22;20082;-60
2022/05/12 11:00:42;;;;;;;5.18;3.20;;;;;;;;;;6497176;22;20003;-62
2022/05/12 11:03:16;;;;;;;1.77;1.77;;;;;;;;;;6496933;22;19999;-62
2022/05/12 11:05:49;;;;;;;2.40;2.25;;;;;;;;;;6497368;22;19999;-62
2022/05/12 11:08:46;;;;;;;1.85;1.75;;;;;;;;;;6497121;22;19999;-61
2022/05/12 11:11:17;;;;;;;3.13;2.92;;;;;;;;;;6491192;22;19999;-60
2022/05/12 11:13:48;;;;;;;2.88;2.67;;;;;;;;;;6496611;22;20050;-61
2022/05/12 11:16:26;;;;;;;3.83;3.45;;;;;;;;;;6497445;22;20003;-59
2022/05/12 11:19:14;;;;;;;6.63;2.85;;;;;;;;;;6497153;22;20364;-59
2022/05/12 11:21:51;;;;;;;8.68;4.10;;;;;;;;;;6496924;22;20058;-63
2022/05/12 11:24:24;;;;;;;4.53;2.28;;;;;;;;;;6496456;22;19999;-61
2022/05/12 11:26:58;;;;;;;3.03;2.00;;;;;;;;;;6494761;22;20086;-62
2022/05/12 11:29:41;;;;;;;5.85;2.38;;;;;;;;;;6496378;22;20035;-62
2022/05/12 11:32:27;;;;;;;3.80;2.63;;;;;;;;;;6496921;22;20437;-62
2022/05/12 11:35:02;;;;;;;2.92;2.83;;;;;;;;;;6496234;22;20034;-60
2022/05/12 11:37:35;;;;;;;3.95;3.58;;;;;;;;;;6496504;22;20010;-61
2022/05/12 11:40:26;;;;;;;5.30;2.88;;;;;;;;;;6496777;22;20003;-62
2022/05/12 11:45:48;;;;;;;7.85;3.17;;;;;;;;;;6523806;22;20003;-62
2022/05/12 11:48:21;;;;;;;5.72;4.55;;;;;;;;;;6496359;22;20021;-61
2022/05/12 11:50:52;;;;;;;3.13;2.90;;;;;;;;;;6496317;22;20097;-62
2022/05/12 11:53:24;;;;;;;3.15;2.95;;;;;;;;;;6496109;22;20019;-61
2022/05/12 11:55:54;;;;;;;4.00;2.95;;;;;;;;;;6496537;22;20006;-62
2022/05/12 11:58:32;;;;;;;6.95;4.32;;;;;;;;;;6512160;22;20010;-61
2022/05/12 12:01:04;;;;;;;6.55;3.20;;;;;;;;;;6554999;22;20429;-62
2022/05/12 12:03:45;;;;;;;4.63;3.53;;;;;;;;;;6554025;22;19995;-62
2022/05/12 12:06:35;;;;;;;4.28;3.47;;;;;;;;;;6554571;22;19991;-62
2022/05/12 12:09:26;;;;;;;4.82;4.35;;;;;;;;;;6554574;22;20025;-62
2022/05/12 12:12:00;;;;;;;5.35;3.97;;;;;;;;;;6553620;22;20006;-60
2022/05/12 12:14:42;;;;;;;3.95;3.65;;;;;;;;;;6554348;22;20003;-60
2022/05/12 12:17:33;;;;;;;3.05;2.88;;;;;;;;;;6554458;22;19998;-59
2022/05/12 12:20:29;;;;;;;3.08;2.97;;;;;;;;;;6553898;22;20459;-61
2022/05/12 12:23:18;;;;;;;6.75;3.75;;;;;;;;;;6554286;22;20006;-61
2022/05/12 12:25:57;;;;;;;4.30;2.80;;;;;;;;;;6553690;22;20444;-62
2022/05/12 12:28:42;;;;;;;5.07;4.38;;;;;;;;;;6554360;22;20002;-59
2022/05/12 12:31:24;;;;;;;14.77;4.38;;;;;;;;;;6554108;22;20314;-62
2022/05/12 12:34:01;;;;;;;4.55;4.13;;;;;;;;;;6555532;22;20005;-60
2022/05/12 12:36:34;;;;;;;5.60;5.10;;;;;;;;;;6555874;22;19998;-61
2022/05/12 12:39:10;;;;;;;4.82;4.38;;;;;;;;;;6554331;22;20003;-62
2022/05/12 12:41:45;;;;;;;4.90;4.53;;;;;;;;;;6554125;22;20389;-60
2022/05/12 12:44:23;;;;;;;7.20;3.85;;;;;;;;;;6553943;22;20017;-60
2022/05/12 12:46:53;;;;;;;5.68;3.85;;;;;;;;;;6555448;22;20002;-60
2022/05/12 12:49:26;;;;;;;5.45;3.63;;;;;;;;;;6554066;22;20085;-61
2022/05/12 12:52:02;;;;;;;7.18;4.63;;;;;;;;;;6554007;22;20006;-63
2022/05/12 12:57:40;;;;;;;8.55;3.78;;;;;;;;;;6555810;22;20045;-63
2022/05/12 13:00:14;;;;;;;1.90;1.80;;;;;;;;;;6553754;22;20082;-63
2022/05/12 13:02:45;;;;;;;4.97;3.45;;;;;;;;;;6554405;22;20285;-62
2022/05/12 13:05:21;;;;;;;3.70;3.05;;;;;;;;;;6553416;22;20078;-63
2022/05/12 13:07:56;;;;;;;4.03;3.63;;;;;;;;;;6553638;22;20074;-63
2022/05/12 13:10:27;;;;;;;9.25;4.78;;;;;;;;;;6553823;22;20010;-63
2022/05/12 13:13:03;;;;;;;4.47;3.10;;;;;;;;;;6554000;22;19999;-64
2022/05/12 13:15:35;;;;;;;6.47;4.30;;;;;;;;;;6555429;22;20006;-63
2022/05/12 13:18:08;;;;;;;3.90;2.97;;;;;;;;;;6554015;22;20060;-64
2022/05/12 13:20:41;;;;;;;4.20;3.80;;;;;;;;;;6553492;22;20022;-63
2022/05/12 13:23:16;;;;;;;4.47;3.97;;;;;;;;;;6554230;22;20002;-63
2022/05/12 13:25:46;;;;;;;3.78;3.38;;;;;;;;;;6553788;22;20363;-63
2022/05/12 13:28:25;;;;;;;5.45;4.18;;;;;;;;;;6553869;22;20001;-63
2022/05/12 13:31:13;;;;;;;4.35;2.95;;;;;;;;;;6553591;22;20002;-64
2022/05/12 13:33:59;;;;;;;11.60;4.05;;;;;;;;;;6553256;22;20140;-64
2022/05/12 13:36:42;;;;;;;2.70;2.50;;;;;;;;;;6556170;22;19999;-64
2022/05/12 13:39:32;;;;;;;3.47;3.25;;;;;;;;;;6554792;22;20152;-64
2022/05/12 13:42:03;;;;;;;7.00;3.22;;;;;;;;;;6557239;22;20069;-64
2022/05/12 13:44:36;;;;;;;9.68;2.65;;;;;;;;;;6555175;22;19998;-65
2022/05/12 13:47:07;;;;;;;12.85;4.85;;;;;;;;;;6555455;22;19995;-64
2022/05/12 13:49:39;;;;;;;6.60;3.47;;;;;;;;;;6555244;22;20095;-64
2022/05/12 13:52:13;;;;;;;4.30;3.92;;;;;;;;;;6555327;22;20006;-64
2022/05/12 13:54:49;;;;;;;5.13;3.25;;;;;;;;;;6557154;22;20489;-64
2022/05/12 13:57:29;;;;;;;3.35;3.05;;;;;;;;;;6555197;22;20007;-64
2022/05/12 13:59:59;;;;;;;2.83;2.50;;;;;;;;;;6531180;22;20011;-64
2022/05/12 14:02:34;;;;;;;6.93;3.13;;;;;;;;;;6528019;22;20077;-61
2022/05/12 14:05:10;;;;;;;7.72;3.67;;;;;;;;;;6527374;22;20389;-60
2022/05/12 14:07:41;;;;;;;7.68;3.53;;;;;;;;;;6527975;22;20021;-62
2022/05/12 14:10:17;;;;;;;6.60;3.22;;;;;;;;;;6528398;22;19998;-62
2022/05/12 14:21:17;;;;;;;7.35;3.00;;;;;;;;;;6555917;22;20432;-63
2022/05/12 14:23:48;;;;;;;9.57;3.53;;;;;;;;;;6527615;22;20003;-61
2022/05/12 14:26:19;;;;;;;6.40;2.47;;;;;;;;;;6527752;22;20052;-59
2022/05/12 14:28:49;;;;;;;4.88;4.45;;;;;;;;;;6527865;22;19995;-61
2022/05/12 14:31:21;;;;;;;3.00;2.80;;;;;;;;;;6527647;22;19994;-62
2022/05/12 14:33:51;;;;;;;3.50;2.97;;;;;;;;;;6528789;22;20006;-63
2022/05/12 14:36:22;;;;;;;4.22;3.85;;;;;;;;;;6527780;22;20002;-61
2022/05/12 14:38:53;;;;;;;4.03;3.22;;;;;;;;;;6527881;22;20140;-62
2022/05/12 14:41:23;;;;;;;3.33;3.13;;;;;;;;;;6527823;22;20441;-61
2022/05/12 14:43:54;;;;;;;3.58;3.30;;;;;;;;;;6527221;22;20026;-62
2022/05/12 14:46:25;;;;;;;3.65;3.20;;;;;;;;;;6527845;22;19999;-61
2022/05/12 14:48:55;;;;;;;5.28;3.45;;;;;;;;;;6527736;22;19994;-62
2022/05/12 14:51:26;;;;;;;2.00;1.95;;;;;;;;;;6529488;22;20022;-63
2022/05/12 14:53:56;;;;;;;4.22;3.03;;;;;;;;;;6527778;22;20006;-61
2022/05/12 14:56:26;;;;;;;13.98;4.07;;;;;;;;;;6527823;22;19995;-62
2022/05/12 14:58:57;;;;;;;10.75;3.42;;;;;;;;;;6527781;22;20003;-62
2022/05/12 15:01:29;;;;;;;4.30;3.13;;;;;;;;;;6527524;22;19995;-61
2022/05/12 15:04:00;;;;;;;2.55;2.38;;;;;;;;;;6555369;22;20501;-64
2022/05/12 15:06:31;;;;;;;7.40;3.63;;;;;;;;;;6555187;22;19995;-60
2022/05/12 15:09:02;;;;;;;5.75;2.70;;;;;;;;;;6527433;22;20479;-64
2022/05/12 15:11:33;;;;;;;2.95;2.22;;;;;;;;;;6526852;22;20020;-61
2022/05/12 15:14:04;;;;;;;5.50;2.78;;;;;;;;;;6527037;22;20002;-62
2022/05/12 15:16:34;;;;;;;4.70;2.97;;;;;;;;;;6527279;22;20285;-61
2022/05/12 15:19:04;;;;;;;5.72;3.22;;;;;;;;;;6527220;22;19998;-62
2022/05/12 15:21:35;;;;;;;2.90;2.70;;;;;;;;;;6554807;22;19991;-62
2022/05/12 15:24:05;;;;;;;3.50;3.22;;;;;;;;;;6526754;22;20001;-63
2022/05/12 15:26:38;;;;;;;15.00;3.95;;;;;;;;;;6526886;22;20067;-63
2022/05/12 15:29:09;;;;;;;9.05;3.72;;;;;;;;;;6527256;22;20056;-62
2022/05/12 15:31:42;;;;;;;16.30;3.88;;;;;;;;;;6527835;22;20076;-62
2022/05/12 15:34:12;;;;;;;5.88;2.72;;;;;;;;;;6527179;22;20348;-65
2022/05/12 15:36:43;;;;;;;3.15;2.95;;;;;;;;;;6526726;22;20063;-62
2022/05/12 15:39:32;;;;;;;6.90;2.75;;;;;;;;;;6526661;22;19999;-62
2022/05/12 15:42:03;;;;;;;8.48;2.60;;;;;;;;;;6526529;22;20003;-61
2022/05/12 15:44:33;;;;;;;6.75;3.28;;;;;;;;;;6526284;22;20086;-61